Time;durP1;ratioP1;P1;durP2;ratioP2;P2;SDS_P1;SDS_P2;PMS_P1;PMS_P2;Temp;Humidity;BMP_temperature;BMP_pressure;BME280_temperature;BME280_humidity;BME280_pressure;Samples;Min_cycle;Max_cycle;Signal;HPM_P1;HPM_P2
2023/11/02 00:00:35;;;;;;;1.73;1.00;;;10.10;72.60;;;;;;5060651;28;20192;-40
2023/11/02 00:03:07;;;;;;;2.67;1.00;;;10.10;99.90;;;;;;5078667;28;20178;-38
2023/11/02 00:05:53;;;;;;;1.33;1.03;;;10.10;99.90;;;;;;5078344;28;20419;-41
2023/11/02 00:08:23;;;;;;;2.33;1.60;;;10.10;99.90;;;;;;5077907;28;20470;-41
2023/11/02 00:10:49;;;;;;;2.90;1.53;;;10.10;99.90;;;;;;5061086;28;20434;-39
2023/11/02 00:13:24;;;;;;;1.43;1.17;;;10.00;99.90;;;;;;5077385;28;20693;-41
2023/11/02 00:15:50;;;;;;;1.40;0.90;;;10.10;99.90;;;;;;5079328;28;20176;-40
2023/11/02 00:18:16;;;;;;;1.83;1.10;;;10.00;99.90;;;;;;5079279;28;20422;-39
2023/11/02 00:20:41;;;;;;;2.60;1.40;;;10.00;99.90;;;;;;5079030;28;20427;-39
2023/11/02 00:23:07;;;;;;;1.87;1.23;;;10.00;99.90;;;;;;5061292;28;20571;-42
2023/11/02 00:25:55;;;;;;;1.20;0.80;;;10.00;99.90;;;;;;5079404;28;20607;-39
2023/11/02 00:28:21;;;;;;;3.07;1.00;;;9.90;99.90;;;;;;5078984;28;20474;-39
2023/11/02 00:30:50;;;;;;;2.70;1.27;;;10.00;1.00;;;;;;5078129;28;20419;-41
2023/11/02 00:33:17;;;;;;;2.83;1.40;;;10.00;99.90;;;;;;5077797;28;20423;-40
2023/11/02 00:35:48;;;;;;;1.63;1.10;;;10.00;99.90;;;;;;5061549;28;20525;-39
2023/11/02 00:38:34;;;;;;;1.90;1.10;;;10.00;99.90;;;;;;5077483;28;20423;-39
2023/11/02 00:41:00;;;;;;;2.10;1.30;;;10.00;99.90;;;;;;5075295;28;20439;-39
2023/11/02 00:43:28;;;;;;;1.93;0.93;;;10.00;99.90;;;;;;5074455;28;20515;-44
2023/11/02 00:45:54;;;;;;;1.90;0.90;;;9.90;99.90;;;;;;5057450;28;20203;-39
2023/11/02 00:48:23;;;;;;;1.73;1.07;;;9.90;99.90;;;;;;5075119;28;20444;-40
2023/11/02 00:51:01;;;;;;;1.60;0.90;;;9.80;99.90;;;;;;5076276;28;20189;-41
2023/11/02 00:53:27;;;;;;;1.77;0.97;;;9.80;99.90;;;;;;5076723;28;20570;-39
2023/11/02 00:55:52;;;;;;;2.10;1.13;;;9.80;99.90;;;;;;5077200;28;20916;-40
2023/11/02 00:58:28;;;;;;;1.60;0.90;;;9.80;99.90;;;;;;5060497;28;20192;-42
2023/11/02 01:00:54;;;;;;;2.70;0.90;;;9.80;99.90;;;;;;5078376;28;20242;-38
2023/11/02 01:03:20;;;;;;;1.60;1.03;;;9.80;99.90;;;;;;5076600;28;20412;-39
2023/11/02 01:05:46;;;;;;;2.70;1.33;;;9.80;99.90;;;;;;5077378;28;20276;-43
2023/11/02 01:08:14;;;;;;;1.57;1.03;;;9.90;99.90;;;;;;5076184;28;20534;-39
2023/11/02 01:10:41;;;;;;;1.90;1.20;;;9.80;99.90;;;;;;5059854;28;20169;-38
2023/11/02 01:13:14;;;;;;;2.03;1.07;;;9.90;99.90;;;;;;5076984;28;20436;-39
2023/11/02 01:15:42;;;;;;;2.10;1.37;;;9.80;99.90;;;;;;5076596;28;20833;-40
2023/11/02 01:18:09;;;;;;;2.27;1.10;;;9.80;99.90;;;;;;5077167;28;20431;-38
2023/11/02 01:20:57;;;;;;;1.53;1.40;;;9.80;99.90;;;;;;5077246;28;20430;-40
2023/11/02 01:23:23;;;;;;;1.20;0.80;;;9.70;99.90;;;;;;5076464;28;20518;-38
2023/11/02 01:25:49;;;;;;;1.90;1.40;;;9.70;99.90;;;;;;5075587;28;20557;-39
2023/11/02 01:28:19;;;;;;;1.60;1.03;;;9.70;99.90;;;;;;5076432;28;20806;-42
2023/11/02 01:31:12;;;;;;;2.60;1.53;;;9.70;99.90;;;;;;5076706;28;20173;-40
2023/11/02 01:33:40;;;;;;;2.03;0.80;;;9.60;99.90;;;;;;5075926;28;20820;-39
2023/11/02 01:36:06;;;;;;;3.93;1.23;;;9.50;99.90;;;;;;5076200;28;20427;-41
2023/11/02 01:38:33;;;;;;;1.70;1.03;;;9.50;1.00;;;;;;5075496;28;20432;-41
2023/11/02 01:41:09;;;;;;;1.70;1.20;;;9.50;1.00;;;;;;5076905;28;20427;-39
2023/11/02 01:43:35;;;;;;;1.40;1.20;;;9.50;1.00;;;;;;5076433;28;20679;-38
2023/11/02 01:46:01;;;;;;;2.27;1.50;;;9.50;1.00;;;;;;5075369;28;20480;-39
2023/11/02 01:48:35;;;;;;;1.83;1.17;;;9.50;1.00;;;;;;5076334;28;20185;-40
2023/11/02 01:51:27;;;;;;;1.70;1.30;;;9.40;1.00;;;;;;5058340;28;20713;-39
2023/11/02 01:54:02;;;;;;;2.53;1.50;;;9.40;16.40;;;;;;5057738;28;20574;-39
2023/11/02 01:56:48;;;;;;;2.30;1.37;;;9.40;99.90;;;;;;5058236;28;20529;-40
2023/11/02 01:59:20;;;;;;;2.60;1.80;;;9.40;99.90;;;;;;5075491;28;20427;-40
2023/11/02 02:01:54;;;;;;;2.63;1.60;;;9.30;99.90;;;;;;5076156;28;20423;-39
2023/11/02 02:04:49;;;;;;;2.67;1.60;;;9.30;1.00;;;;;;5077475;28;20431;-39
2023/11/02 02:07:27;;;;;;;2.57;1.70;;;9.20;1.00;;;;;;5056918;28;20530;-38
2023/11/02 02:10:13;;;;;;;1.93;1.43;;;9.20;60.30;;;;;;5059459;28;20675;-40
2023/11/02 02:12:59;;;;;;;5.07;1.67;;;9.20;99.90;;;;;;5077683;28;20756;-40
2023/11/02 02:15:41;;;;;;;4.13;1.63;;;9.20;99.90;;;;;;5059013;28;20471;-38
2023/11/02 02:18:20;;;;;;;3.83;2.03;;;9.20;99.90;;;;;;5059593;28;20427;-40
2023/11/02 02:20:48;;;;;;;2.60;1.87;;;9.20;1.00;;;;;;5076804;28;20423;-40
2023/11/02 02:23:25;;;;;;;3.60;2.80;;;9.20;1.00;;;;;;5076547;28;20489;-39
2023/11/02 02:26:28;;;;;;;3.23;1.80;;;9.10;99.90;;;;;;5077172;28;20423;-40
2023/11/02 02:29:36;;;;;;;2.13;1.80;;;9.10;99.90;;;;;;5077314;28;20756;-37
2023/11/02 02:32:19;;;;;;;3.13;2.40;;;9.20;99.90;;;;;;4988378;28;20431;-39
2023/11/02 02:35:19;;;;;;;2.50;1.83;;;9.20;99.90;;;;;;5076830;28;20466;-39
2023/11/02 02:37:48;;;;;;;3.03;2.20;;;9.20;99.90;;;;;;5023386;28;20473;-40
2023/11/02 02:40:39;;;;;;;2.97;1.83;;;9.20;99.90;;;;;;5080648;28;20812;-40
2023/11/02 02:43:05;;;;;;;3.40;2.43;;;9.20;1.00;;;;;;5080789;28;20404;-42
2023/11/02 02:45:34;;;;;;;5.00;2.80;;;9.20;1.00;;;;;;5063390;28;20411;-38
2023/11/02 02:48:01;;;;;;;3.03;2.30;;;9.20;1.00;;;;;;5080585;28;20435;-39
2023/11/02 02:50:31;;;;;;;3.23;2.93;;;9.20;1.00;;;;;;5080467;28;21038;-41
2023/11/02 02:53:00;;;;;;;2.80;2.20;;;9.20;1.00;;;;;;5062577;28;20726;-39
2023/11/02 02:55:28;;;;;;;3.60;2.30;;;9.20;57.20;;;;;;5063272;28;20574;-40
2023/11/02 02:57:57;;;;;;;3.20;2.50;;;9.20;99.90;;;;;;5079656;28;20423;-39
2023/11/02 03:00:23;;;;;;;2.60;2.17;;;9.20;99.90;;;;;;5080370;28;20415;-41
2023/11/02 03:02:51;;;;;;;2.50;2.30;;;9.20;99.90;;;;;;5080853;28;20537;-41
2023/11/02 03:05:17;;;;;;;2.43;2.20;;;9.20;99.90;;;;;;5079458;28;20705;-38
2023/11/02 03:07:46;;;;;;;2.90;2.20;;;9.10;1.00;;;;;;5079524;28;20428;-42
2023/11/02 03:10:13;;;;;;;3.60;2.60;;;9.20;1.00;;;;;;5080629;28;20438;-38
2023/11/02 03:12:41;;;;;;;3.00;2.80;;;9.20;1.00;;;;;;5063565;28;20863;-40
2023/11/02 03:15:08;;;;;;;4.47;2.30;;;9.20;1.00;;;;;;5079050;28;20766;-42
2023/11/02 03:17:49;;;;;;;2.13;1.93;;;9.30;1.00;;;;;;5078982;28;20847;-39
2023/11/02 03:20:16;;;;;;;2.50;2.17;;;9.30;1.00;;;;;;5080024;28;20836;-39
2023/11/02 03:22:42;;;;;;;3.43;2.83;;;9.30;1.00;;;;;;5078549;28;20427;-41
2023/11/02 03:25:59;;;;;;;2.63;2.00;;;9.40;1.00;;;;;;5061364;28;20431;-41
2023/11/02 03:29:05;;;;;;;2.30;2.03;;;9.40;1.00;;;;;;4979430;28;20413;-42
2023/11/02 03:31:41;;;;;;;3.27;1.83;;;9.50;1.00;;;;;;5034903;28;20816;-40
2023/11/02 03:34:16;;;;;;;3.30;2.03;;;9.50;1.00;;;;;;5059919;28;20563;-41
2023/11/02 03:36:57;;;;;;;2.83;2.40;;;9.50;1.00;;;;;;5041889;28;20431;-41
2023/11/02 03:39:51;;;;;;;3.33;2.30;;;9.50;1.00;;;;;;5059011;28;20439;-40
2023/11/02 03:42:23;;;;;;;2.33;1.87;;;9.50;35.90;;;;;;5030574;28;20451;-41
2023/11/02 03:45:08;;;;;;;2.43;1.83;;;9.50;64.80;;;;;;5059092;28;20416;-40
2023/11/02 03:47:53;;;;;;;2.57;1.90;;;9.50;91.60;;;;;;5057964;28;20409;-41
2023/11/02 03:50:59;;;;;;;3.53;1.73;;;9.60;99.90;;;;;;5059240;28;20412;-39
2023/11/02 03:53:42;;;;;;;1.63;1.40;;;9.60;92.00;;;;;;5041052;28;20474;-39
2023/11/02 03:56:42;;;;;;;2.60;1.60;;;9.60;99.90;;;;;;5058309;28;20443;-39
2023/11/02 03:59:16;;;;;;;2.00;1.60;;;9.60;99.90;;;;;;5058445;28;20698;-41
2023/11/02 04:01:48;;;;;;;2.03;1.67;;;9.60;99.90;;;;;;5057903;28;20448;-39
2023/11/02 04:04:22;;;;;;;2.10;1.33;;;9.70;99.90;;;;;;5059187;28;20459;-39
2023/11/02 04:07:02;;;;;;;1.70;1.43;;;9.70;99.90;;;;;;5040125;28;20436;-40
2023/11/02 04:09:39;;;;;;;2.30;1.57;;;9.70;99.90;;;;;;5057525;28;20444;-40
2023/11/02 04:12:23;;;;;;;3.50;1.93;;;9.70;99.90;;;;;;5057513;28;20420;-38
2023/11/02 04:14:51;;;;;;;1.50;1.30;;;9.60;99.90;;;;;;5057870;28;20550;-40
2023/11/02 04:17:18;;;;;;;2.17;1.43;;;9.60;99.90;;;;;;5040889;28;20404;-41
2023/11/02 04:19:44;;;;;;;2.00;1.43;;;9.50;1.00;;;;;;5058911;28;20797;-40
2023/11/02 04:22:09;;;;;;;2.53;1.50;;;9.40;1.00;;;;;;5057447;28;20440;-40
2023/11/02 04:24:35;;;;;;;3.30;2.00;;;9.40;1.00;;;;;;5056207;28;20194;-40
2023/11/02 04:27:00;;;;;;;1.77;1.43;;;9.40;1.00;;;;;;5057589;28;20251;-39
2023/11/02 04:29:26;;;;;;;2.53;1.70;;;9.30;1.00;;;;;;5056718;28;20186;-37
2023/11/02 04:31:52;;;;;;;3.73;1.90;;;9.30;7.70;;;;;;5058332;28;20469;-42
2023/11/02 04:34:18;;;;;;;3.10;2.00;;;9.30;25.00;;;;;;5058330;28;20486;-40
2023/11/02 04:36:43;;;;;;;2.60;1.57;;;9.30;50.00;;;;;;5040057;28;20348;-41
2023/11/02 04:39:09;;;;;;;1.90;1.53;;;9.30;19.70;;;;;;5058161;28;20181;-40
2023/11/02 04:41:34;;;;;;;2.03;1.67;;;9.40;31.30;;;;;;5057952;28;20178;-39
2023/11/02 04:44:00;;;;;;;2.23;1.77;;;9.40;52.40;;;;;;5057490;28;20394;-39
2023/11/02 04:46:26;;;;;;;2.97;2.07;;;9.40;56.50;;;;;;5040545;28;20460;-40
2023/11/02 04:48:51;;;;;;;1.90;1.60;;;9.40;99.90;;;;;;5058403;28;20343;-41
2023/11/02 04:51:17;;;;;;;2.37;1.80;;;9.40;79.80;;;;;;5057357;28;20190;-39
2023/11/02 04:53:42;;;;;;;1.83;1.63;;;9.40;51.30;;;;;;5057691;28;20210;-39
2023/11/02 04:56:08;;;;;;;3.00;1.70;;;9.50;49.20;;;;;;5056708;28;20344;-40
2023/11/02 04:58:34;;;;;;;2.70;1.83;;;9.50;60.60;;;;;;5056697;28;20185;-40
2023/11/02 05:00:59;;;;;;;2.03;1.60;;;9.40;54.80;;;;;;5057627;28;20526;-39
2023/11/02 05:03:26;;;;;;;4.80;1.67;;;9.40;99.90;;;;;;5056814;28;20201;-39
2023/11/02 05:05:51;;;;;;;3.27;1.87;;;9.40;83.10;;;;;;5054136;28;20174;-39
2023/11/02 05:08:17;;;;;;;2.20;1.30;;;9.50;22.00;;;;;;5056381;28;20501;-41
2023/11/02 05:10:43;;;;;;;2.20;1.43;;;9.50;1.00;;;;;;5055828;28;20198;-41
2023/11/02 05:13:09;;;;;;;2.93;1.80;;;9.60;1.00;;;;;;5051941;28;20192;-38
2023/11/02 05:15:34;;;;;;;2.50;1.60;;;9.60;1.00;;;;;;5051156;28;20873;-39
2023/11/02 05:18:00;;;;;;;1.73;1.30;;;9.60;1.00;;;;;;5051531;28;20182;-39
2023/11/02 05:20:27;;;;;;;2.20;1.80;;;9.60;1.00;;;;;;5052454;28;20174;-39
2023/11/02 05:22:53;;;;;;;3.13;1.47;;;9.60;1.00;;;;;;5051392;28;20182;-40
2023/11/02 05:25:19;;;;;;;1.60;1.27;;;9.60;1.00;;;;;;5052037;28;20438;-44
2023/11/02 05:27:45;;;;;;;2.07;1.53;;;9.50;1.00;;;;;;5052393;28;20190;-40
2023/11/02 05:31:03;;;;;;;2.30;1.77;;;9.50;1.00;;;;;;5046290;28;20225;-39
2023/11/02 05:33:28;;;;;;;2.03;1.43;;;9.60;1.00;;;;;;5049398;28;20194;-41
2023/11/02 05:35:54;;;;;;;3.57;1.53;;;9.60;1.00;;;;;;5056761;28;20413;-39
2023/11/02 05:38:20;;;;;;;2.30;2.03;;;9.60;1.00;;;;;;5055957;28;20255;-40
2023/11/02 05:41:04;;;;;;;2.77;1.20;;;9.50;1.00;;;;;;5057608;28;20178;-41
2023/11/02 05:43:30;;;;;;;1.83;1.27;;;9.50;1.00;;;;;;5056592;28;20504;-52
2023/11/02 05:45:55;;;;;;;1.60;1.07;;;9.50;1.00;;;;;;5056923;28;20465;-40
2023/11/02 05:48:22;;;;;;;2.30;1.70;;;9.50;1.00;;;;;;5055100;28;20201;-40
2023/11/02 05:50:49;;;;;;;1.53;1.40;;;9.50;1.00;;;;;;5053976;28;20186;-41
2023/11/02 05:53:16;;;;;;;2.07;1.50;;;9.60;1.00;;;;;;5055557;28;20499;-41
2023/11/02 05:55:43;;;;;;;2.23;1.60;;;9.60;1.00;;;;;;5054986;28;20919;-43
2023/11/02 05:58:09;;;;;;;1.77;1.27;;;9.60;1.00;;;;;;5054675;28;20436;-40
2023/11/02 06:00:37;;;;;;;3.10;1.70;;;9.60;1.00;;;;;;5056189;28;20500;-39
2023/11/02 06:03:03;;;;;;;2.60;1.37;;;9.60;99.90;;;;;;5052579;28;20174;-38
2023/11/02 06:05:28;;;;;;;1.60;1.50;;;9.70;99.90;;;;;;5052103;28;21026;-40
2023/11/02 06:07:54;;;;;;;2.27;1.30;;;9.70;99.90;;;;;;5052644;28;20577;-38
2023/11/02 06:10:21;;;;;;;1.83;1.20;;;9.70;99.90;;;;;;5052557;28;20228;-39
2023/11/02 06:12:46;;;;;;;2.30;1.60;;;9.80;99.90;;;;;;5051605;28;20268;-40
2023/11/02 06:15:12;;;;;;;3.03;1.50;;;9.80;99.90;;;;;;5036994;28;20471;-41
2023/11/02 06:17:38;;;;;;;1.70;1.50;;;9.80;99.90;;;;;;5054441;28;20512;-40
2023/11/02 06:20:06;;;;;;;1.40;1.20;;;9.90;1.00;;;;;;5054002;28;20236;-39
2023/11/02 06:22:32;;;;;;;4.80;1.50;;;9.90;1.00;;;;;;5035523;28;20445;-39
2023/11/02 06:24:58;;;;;;;1.77;1.10;;;9.90;1.00;;;;;;5053844;28;20798;-40
2023/11/02 06:27:24;;;;;;;1.83;1.30;;;9.90;1.00;;;;;;5053938;28;20435;-40
2023/11/02 06:29:50;;;;;;;2.57;1.50;;;9.90;1.00;;;;;;5053285;28;20181;-39
2023/11/02 06:32:15;;;;;;;4.60;1.77;;;10.00;1.00;;;;;;5054634;28;20449;-41
2023/11/02 06:34:41;;;;;;;3.80;1.50;;;10.00;1.00;;;;;;5054937;28;20225;-39
2023/11/02 06:37:08;;;;;;;3.93;1.70;;;10.00;1.00;;;;;;5055485;28;20276;-39
2023/11/02 06:39:35;;;;;;;2.43;1.77;;;10.00;1.00;;;;;;5055177;28;20198;-40
2023/11/02 06:42:01;;;;;;;1.50;1.37;;;10.00;1.00;;;;;;5054799;28;20416;-38
2023/11/02 06:44:26;;;;;;;2.23;1.67;;;10.00;1.00;;;;;;5051757;28;20976;-41
2023/11/02 06:46:52;;;;;;;2.43;1.73;;;10.00;67.10;;;;;;5033307;28;20262;-40
2023/11/02 06:49:18;;;;;;;2.47;1.60;;;10.00;99.90;;;;;;5052372;28;20560;-41
2023/11/02 06:51:43;;;;;;;2.20;1.60;;;10.00;99.90;;;;;;5053498;28;20192;-45
2023/11/02 06:54:09;;;;;;;3.17;1.50;;;10.10;99.90;;;;;;5051894;28;20491;-40
2023/11/02 06:56:35;;;;;;;2.20;1.67;;;10.10;99.90;;;;;;5053026;28;20342;-42
2023/11/02 06:59:00;;;;;;;2.00;1.33;;;10.10;99.90;;;;;;5054354;28;20208;-39
2023/11/02 07:01:26;;;;;;;1.40;1.00;;;10.10;99.90;;;;;;5049900;28;20189;-42
2023/11/02 07:03:53;;;;;;;4.53;1.30;;;10.20;99.90;;;;;;5051662;28;20256;-40
2023/11/02 07:06:19;;;;;;;2.07;1.50;;;10.10;99.90;;;;;;5051698;28;20927;-40
2023/11/02 07:08:44;;;;;;;3.20;1.43;;;10.10;99.90;;;;;;5053669;28;20416;-42
2023/11/02 07:11:10;;;;;;;1.60;1.20;;;10.10;99.90;;;;;;5053556;28;20534;-41
2023/11/02 07:13:36;;;;;;;3.57;1.53;;;10.10;99.90;;;;;;5035017;28;20186;-42
2023/11/02 07:16:02;;;;;;;2.30;1.63;;;10.10;99.90;;;;;;5053634;28;20299;-40
2023/11/02 07:18:29;;;;;;;1.83;1.37;;;10.10;99.90;;;;;;5051820;28;20251;-41
2023/11/02 07:20:55;;;;;;;2.83;1.43;;;10.10;99.90;;;;;;5053610;28;20710;-39
2023/11/02 07:23:20;;;;;;;1.80;1.40;;;10.10;99.90;;;;;;5057910;28;20432;-39
2023/11/02 07:25:46;;;;;;;2.03;1.33;;;10.10;99.90;;;;;;5056815;28;20653;-39
2023/11/02 07:28:11;;;;;;;1.60;1.10;;;10.10;99.90;;;;;;5057138;28;20277;-43
2023/11/02 07:30:37;;;;;;;2.10;1.20;;;10.10;99.90;;;;;;5058574;28;20227;-40
2023/11/02 07:33:03;;;;;;;1.77;1.10;;;10.00;99.90;;;;;;5057914;28;20244;-42
2023/11/02 07:35:29;;;;;;;1.53;1.00;;;10.00;99.90;;;;;;5056644;28;20230;-42
2023/11/02 07:37:55;;;;;;;1.97;1.43;;;10.00;99.90;;;;;;5055257;28;20830;-40
2023/11/02 07:40:20;;;;;;;2.47;1.10;;;10.00;99.90;;;;;;5056509;28;20197;-41
2023/11/02 07:42:46;;;;;;;3.10;1.23;;;10.00;99.90;;;;;;5056184;28;20185;-41
2023/11/02 07:45:12;;;;;;;2.17;1.00;;;10.00;99.90;;;;;;5056230;28;20178;-41
2023/11/02 07:47:38;;;;;;;3.00;1.33;;;10.00;99.90;;;;;;5054612;28;20438;-40
2023/11/02 07:50:04;;;;;;;1.97;1.30;;;10.00;99.90;;;;;;5056027;28;20620;-41
2023/11/02 07:52:30;;;;;;;2.27;1.47;;;10.00;99.90;;;;;;5057320;28;20182;-41
2023/11/02 07:54:58;;;;;;;1.30;1.03;;;10.10;99.90;;;;;;5055833;28;20553;-39
2023/11/02 07:57:25;;;;;;;3.10;1.47;;;10.10;99.90;;;;;;5055123;28;20428;-44
2023/11/02 07:59:51;;;;;;;1.60;1.20;;;10.20;99.90;;;;;;5057212;28;20412;-40
2023/11/02 08:02:17;;;;;;;1.70;0.93;;;10.20;99.90;;;;;;5057239;28;20405;-41
2023/11/02 08:04:42;;;;;;;3.03;1.40;;;10.30;99.90;;;;;;5041894;28;20672;-41
2023/11/02 08:07:08;;;;;;;2.20;1.80;;;10.30;99.90;;;;;;5057034;28;20178;-39
2023/11/02 08:09:34;;;;;;;1.70;1.20;;;10.20;99.90;;;;;;5055352;28;20551;-40
2023/11/02 08:12:00;;;;;;;1.60;1.30;;;10.20;99.90;;;;;;5057487;28;20174;-40
2023/11/02 08:14:26;;;;;;;1.50;1.10;;;10.20;1.00;;;;;;5057195;28;20633;-40
2023/11/02 08:16:51;;;;;;;2.33;1.70;;;10.20;1.00;;;;;;5057962;28;20189;-42
2023/11/02 08:19:17;;;;;;;1.50;1.10;;;10.20;99.90;;;;;;5055989;28;20591;-41
2023/11/02 08:21:43;;;;;;;2.40;1.73;;;10.20;99.90;;;;;;5057627;28;20444;-40
2023/11/02 08:24:10;;;;;;;1.80;1.50;;;10.10;1.00;;;;;;5057217;28;20301;-42
2023/11/02 08:26:36;;;;;;;1.90;1.20;;;10.10;1.00;;;;;;5035636;28;20194;-41
2023/11/02 08:29:02;;;;;;;1.87;1.50;;;10.10;1.00;;;;;;5054750;28;20462;-41
2023/11/02 08:31:29;;;;;;;3.00;1.20;;;10.10;1.00;;;;;;5052763;28;20476;-38
2023/11/02 08:33:55;;;;;;;5.23;1.20;;;10.20;99.90;;;;;;5053513;28;20868;-39
2023/11/02 08:36:22;;;;;;;3.47;1.27;;;11.40;1.00;;;;;;5055697;28;20424;-39
2023/11/02 08:38:48;;;;;;;1.97;1.20;;;12.20;1.00;;;;;;5055455;28;20413;-43
2023/11/02 08:41:21;;;;;;;5.03;1.37;;;13.00;1.00;;;;;;5055519;28;20499;-40
2023/11/02 08:43:47;;;;;;;2.43;1.40;;;13.80;1.00;;;;;;5052629;28;20428;-39
2023/11/02 08:46:16;;;;;;;2.77;1.43;;;14.70;99.90;;;;;;5055055;28;20679;-41
2023/11/02 08:48:46;;;;;;;2.17;1.07;;;15.40;1.00;;;;;;5057031;28;20684;-44
2023/11/02 08:51:17;;;;;;;2.10;1.37;;;15.80;30.60;;;;;;5056628;28;20424;-40
2023/11/02 08:53:43;;;;;;;1.77;1.10;;;15.80;1.00;;;;;;5055022;28;20427;-39
2023/11/02 08:56:10;;;;;;;1.93;1.60;;;15.90;1.00;;;;;;5055845;28;20525;-40
2023/11/02 08:58:43;;;;;;;2.27;1.50;;;16.20;99.90;;;;;;5057358;28;20432;-41
2023/11/02 09:01:10;;;;;;;2.90;1.53;;;15.70;99.90;;;;;;5057488;28;20432;-40
2023/11/02 09:03:39;;;;;;;2.27;1.57;;;15.20;99.90;;;;;;5038262;28;20526;-43
2023/11/02 09:06:08;;;;;;;1.63;1.37;;;14.70;99.90;;;;;;5057755;28;20420;-41
2023/11/02 09:08:37;;;;;;;2.30;1.40;;;14.30;99.90;;;;;;5057164;28;20424;-41
2023/11/02 09:11:03;;;;;;;2.17;1.50;;;14.00;1.00;;;;;;5057673;28;20510;-40
2023/11/02 09:13:30;;;;;;;1.47;1.27;;;13.70;1.00;;;;;;5055864;28;20436;-40
2023/11/02 09:15:56;;;;;;;2.27;1.47;;;13.50;99.90;;;;;;5053620;28;20727;-39
2023/11/02 09:18:22;;;;;;;1.93;1.57;;;13.20;99.90;;;;;;5054041;28;20436;-38
2023/11/02 09:20:49;;;;;;;2.20;1.30;;;13.00;1.00;;;;;;5035965;28;20305;-41
2023/11/02 09:23:16;;;;;;;2.07;1.17;;;12.80;99.90;;;;;;5053003;28;20732;-40
2023/11/02 09:25:42;;;;;;;2.73;1.50;;;12.60;1.00;;;;;;5055956;28;20916;-38
2023/11/02 09:28:08;;;;;;;2.03;1.30;;;12.50;1.00;;;;;;5057386;28;20433;-42
2023/11/02 09:30:34;;;;;;;1.63;1.40;;;12.40;99.90;;;;;;5054762;28;20806;-39
2023/11/02 09:32:59;;;;;;;2.30;1.40;;;12.30;99.90;;;;;;5055352;28;20425;-37
2023/11/02 09:35:25;;;;;;;2.47;2.27;;;12.30;99.90;;;;;;5035795;28;20589;-38
2023/11/02 09:37:51;;;;;;;2.27;1.53;;;12.20;1.00;;;;;;5051884;28;20224;-39
2023/11/02 09:40:17;;;;;;;3.97;1.40;;;12.20;1.00;;;;;;5038836;28;20192;-39
2023/11/02 09:42:46;;;;;;;2.63;1.40;;;12.20;1.00;;;;;;5054813;28;20413;-41
2023/11/02 09:45:12;;;;;;;2.03;1.60;;;12.20;1.00;;;;;;5029122;28;20425;-39
2023/11/02 09:47:38;;;;;;;1.77;1.20;;;12.20;1.00;;;;;;5053429;28;20424;-39
2023/11/02 09:50:08;;;;;;;2.43;1.40;;;12.30;1.00;;;;;;5054832;28;20489;-39
2023/11/02 09:52:34;;;;;;;1.50;1.20;;;12.30;1.00;;;;;;5053853;28;20567;-41
2023/11/02 09:55:00;;;;;;;1.60;1.17;;;12.30;1.00;;;;;;5054648;28;20502;-38
2023/11/02 09:57:26;;;;;;;2.50;1.20;;;12.30;36.40;;;;;;5054778;28;20986;-39
2023/11/02 09:59:52;;;;;;;1.57;1.10;;;12.40;96.50;;;;;;5018544;28;20428;-38
2023/11/02 10:02:19;;;;;;;2.80;0.87;;;12.30;99.90;;;;;;5055355;28;20420;-39
2023/11/02 10:04:45;;;;;;;2.00;1.17;;;12.30;99.90;;;;;;5055252;28;20212;-38
2023/11/02 10:07:11;;;;;;;1.97;1.23;;;12.30;99.90;;;;;;5046799;28;20834;-38
2023/11/02 10:09:38;;;;;;;1.50;1.00;;;12.30;99.90;;;;;;5036867;28;20534;-40
2023/11/02 10:12:04;;;;;;;3.47;1.33;;;12.40;99.90;;;;;;5056298;28;20486;-39
2023/11/02 10:14:32;;;;;;;2.10;0.90;;;12.40;99.90;;;;;;5055407;28;20467;-42
2023/11/02 10:17:04;;;;;;;2.73;1.40;;;12.50;99.90;;;;;;5037259;28;20900;-40
2023/11/02 10:19:31;;;;;;;2.33;1.20;;;12.40;99.90;;;;;;5055883;28;20424;-39
2023/11/02 10:21:57;;;;;;;1.57;1.10;;;12.40;1.00;;;;;;5054320;28;20424;-39
2023/11/02 10:24:36;;;;;;;1.67;1.20;;;12.40;1.00;;;;;;5054526;28;20428;-39
2023/11/02 10:27:03;;;;;;;1.30;1.00;;;12.40;1.00;;;;;;5055177;28;20643;-39
2023/11/02 10:29:29;;;;;;;3.23;1.17;;;12.40;1.00;;;;;;5036612;28;20418;-41
2023/11/02 10:31:56;;;;;;;2.57;1.20;;;12.40;1.00;;;;;;5037504;28;20472;-39
2023/11/02 10:34:25;;;;;;;1.60;0.80;;;12.40;1.00;;;;;;5055793;28;20887;-38
2023/11/02 10:36:52;;;;;;;2.70;1.10;;;12.50;1.00;;;;;;5054211;28;20494;-39
2023/11/02 10:39:22;;;;;;;1.53;0.90;;;12.50;1.00;;;;;;5037790;28;20429;-38
2023/11/02 10:41:58;;;;;;;1.10;0.60;;;12.60;1.00;;;;;;5054043;28;20463;-39
2023/11/02 10:44:33;;;;;;;1.33;0.87;;;12.80;1.00;;;;;;5054446;28;20423;-41
2023/11/02 10:47:04;;;;;;;0.90;0.50;;;12.90;99.90;;;;;;5055336;28;20844;-39
2023/11/02 10:49:33;;;;;;;1.93;0.67;;;13.00;99.90;;;;;;5053158;28;20428;-39
2023/11/02 10:51:59;;;;;;;1.70;0.87;;;13.10;99.90;;;;;;5052031;28;20455;-43
2023/11/02 10:54:40;;;;;;;1.70;0.70;;;13.10;1.00;;;;;;5033031;28;20475;-38
2023/11/02 10:57:16;;;;;;;1.23;0.70;;;13.10;1.00;;;;;;5051716;28;20989;-40
2023/11/02 10:59:43;;;;;;;1.23;0.67;;;13.10;1.00;;;;;;5054129;28;20408;-40
2023/11/02 11:02:11;;;;;;;1.70;0.80;;;13.00;99.90;;;;;;5053216;28;20490;-38
2023/11/02 11:04:39;;;;;;;1.37;0.67;;;13.00;99.90;;;;;;5035098;28;20440;-39
2023/11/02 11:07:06;;;;;;;1.60;0.87;;;13.00;99.90;;;;;;5054312;28;20438;-38
2023/11/02 11:09:32;;;;;;;2.80;0.80;;;12.90;99.90;;;;;;5055189;28;20494;-39
2023/11/02 11:11:59;;;;;;;3.10;1.03;;;12.90;99.90;;;;;;5056428;28;20671;-41
2023/11/02 11:14:27;;;;;;;1.23;0.63;;;12.90;99.90;;;;;;5036231;28;20463;-41
2023/11/02 11:16:55;;;;;;;1.33;0.70;;;12.90;99.90;;;;;;5036655;28;20466;-39
2023/11/02 11:19:21;;;;;;;0.93;0.53;;;12.80;99.90;;;;;;5039904;28;20550;-40
2023/11/02 11:21:49;;;;;;;1.30;0.67;;;12.80;99.90;;;;;;5056538;28;20451;-37
2023/11/02 11:24:18;;;;;;;1.20;0.60;;;12.80;99.90;;;;;;5038909;28;20438;-39
2023/11/02 11:26:50;;;;;;;1.20;0.70;;;12.70;99.90;;;;;;5037413;28;20447;-38
2023/11/02 11:29:40;;;;;;;1.63;1.00;;;12.60;99.90;;;;;;5056367;28;20810;-40
2023/11/02 11:32:26;;;;;;;1.40;0.80;;;12.50;1.00;;;;;;5056097;28;20916;-38
2023/11/02 11:34:55;;;;;;;1.37;0.70;;;12.40;1.00;;;;;;5058062;28;20761;-39
2023/11/02 11:37:42;;;;;;;1.13;0.50;;;12.30;1.00;;;;;;5058069;28;20577;-39
2023/11/02 11:40:30;;;;;;;1.57;0.57;;;12.30;49.80;;;;;;5056111;28;20810;-38
2023/11/02 11:43:27;;;;;;;1.90;1.07;;;12.40;1.00;;;;;;5050163;28;20810;-38
2023/11/02 11:45:54;;;;;;;3.93;0.67;;;12.40;1.00;;;;;;5055453;28;20526;-38
2023/11/02 11:48:35;;;;;;;1.73;0.60;;;12.40;1.00;;;;;;5055953;28;20715;-39
2023/11/02 11:51:03;;;;;;;1.20;0.50;;;12.40;1.00;;;;;;5057215;28;20415;-38
2023/11/02 11:53:28;;;;;;;1.37;0.90;;;12.40;99.90;;;;;;5039508;28;20431;-39
2023/11/02 11:55:56;;;;;;;1.60;0.77;;;12.30;99.90;;;;;;5054384;28;20471;-39
2023/11/02 11:58:43;;;;;;;0.80;0.50;;;12.30;1.00;;;;;;5054365;28;20178;-39
2023/11/02 12:01:13;;;;;;;2.80;1.10;;;12.20;1.00;;;;;;5052700;28;20424;-45
2023/11/02 12:03:38;;;;;;;1.40;0.70;;;12.20;1.00;;;;;;5054839;28;20459;-38
2023/11/02 12:06:12;;;;;;;1.10;0.70;;;12.20;1.00;;;;;;5054553;28;20447;-38
2023/11/02 12:08:48;;;;;;;1.20;0.60;;;12.20;1.00;;;;;;5038029;28;20170;-39
2023/11/02 12:11:24;;;;;;;1.53;0.80;;;12.20;1.00;;;;;;5052277;28;20469;-40
2023/11/02 12:13:52;;;;;;;2.23;1.30;;;12.30;99.90;;;;;;5053376;28;20528;-39
2023/11/02 12:16:20;;;;;;;2.23;1.10;;;12.20;99.90;;;;;;5055152;28;20428;-40
2023/11/02 12:18:46;;;;;;;1.53;0.67;;;12.10;1.00;;;;;;5055392;28;20920;-39
2023/11/02 12:21:17;;;;;;;3.00;0.80;;;12.10;1.00;;;;;;5057628;28;20530;-37
2023/11/02 12:23:44;;;;;;;2.03;0.60;;;12.00;1.00;;;;;;5056401;28;20898;-39
2023/11/02 12:26:10;;;;;;;1.87;0.80;;;11.90;1.00;;;;;;5054717;28;20732;-38
2023/11/02 12:28:51;;;;;;;1.10;0.70;;;11.80;1.00;;;;;;5056521;28;20468;-40
2023/11/02 12:31:34;;;;;;;1.63;0.67;;;11.70;99.90;;;;;;5054868;28;20475;-38
2023/11/02 12:34:02;;;;;;;3.33;1.33;;;11.70;99.90;;;;;;5054234;28;20479;-37
2023/11/02 12:36:27;;;;;;;2.30;1.07;;;11.70;99.90;;;;;;5054314;28;20601;-38
2023/11/02 12:38:55;;;;;;;1.50;0.80;;;11.70;99.90;;;;;;5053772;28;20504;-40
2023/11/02 12:41:28;;;;;;;1.67;1.00;;;11.70;99.90;;;;;;5053057;28;20169;-39
2023/11/02 12:44:14;;;;;;;1.50;0.90;;;11.60;99.90;;;;;;5054960;28;20760;-38
2023/11/02 12:46:41;;;;;;;3.73;1.17;;;11.60;99.90;;;;;;5036087;28;20511;-39
2023/11/02 12:49:18;;;;;;;2.63;0.80;;;11.60;99.90;;;;;;5053161;28;20459;-38
2023/11/02 12:51:49;;;;;;;1.20;0.60;;;11.50;99.90;;;;;;5052975;28;20783;-38
2023/11/02 12:54:16;;;;;;;2.00;0.70;;;11.50;99.90;;;;;;5053459;28;20495;-38
2023/11/02 12:56:44;;;;;;;1.13;0.80;;;11.50;99.90;;;;;;5054031;28;20504;-42
2023/11/02 12:59:10;;;;;;;1.70;0.70;;;11.50;99.90;;;;;;5053938;28;20514;-39
2023/11/02 13:01:53;;;;;;;1.60;0.90;;;11.40;99.90;;;;;;5053779;28;20460;-39
2023/11/02 13:04:28;;;;;;;2.17;0.80;;;11.30;39.10;;;;;;5053255;28;20439;-39
2023/11/02 13:06:55;;;;;;;1.33;0.70;;;11.30;71.70;;;;;;5054513;28;20552;-39
2023/11/02 13:09:22;;;;;;;1.37;0.60;;;11.30;12.70;;;;;;5054795;28;20429;-38
2023/11/02 13:11:53;;;;;;;1.30;0.60;;;11.20;92.20;;;;;;5055814;28;20580;-40